sensor_id;sensor_type;location;lat;lon;timestamp;P1;durP1;ratioP1;P2;durP2;ratioP2
68353;SDS011;55274;43.060;25.618;2023-02-01T00:01:32;5.25;;;2.75;;
68353;SDS011;55274;43.060;25.618;2023-02-01T00:03:58;6.82;;;3.55;;
68353;SDS011;55274;43.060;25.618;2023-02-01T00:06:23;6.93;;;3.47;;
68353;SDS011;55274;43.060;25.618;2023-02-01T00:08:52;6.82;;;3.45;;
68353;SDS011;55274;43.060;25.618;2023-02-01T00:11:19;6.65;;;3.50;;
68353;SDS011;55274;43.060;25.618;2023-02-01T00:13:45;5.95;;;2.72;;
68353;SDS011;55274;43.060;25.618;2023-02-01T00:16:12;5.13;;;2.55;;
68353;SDS011;55274;43.060;25.618;2023-02-01T00:18:41;5.57;;;2.85;;
68353;SDS011;55274;43.060;25.618;2023-02-01T00:21:07;6.85;;;3.10;;
68353;SDS011;55274;43.060;25.618;2023-02-01T00:23:35;4.32;;;2.53;;
68353;SDS011;55274;43.060;25.618;2023-02-01T00:26:03;6.43;;;3.17;;
68353;SDS011;55274;43.060;25.618;2023-02-01T00:28:30;6.72;;;2.65;;
68353;SDS011;55274;43.060;25.618;2023-02-01T00:30:57;6.93;;;3.05;;
68353;SDS011;55274;43.060;25.618;2023-02-01T00:33:24;6.05;;;3.35;;
68353;SDS011;55274;43.060;25.618;2023-02-01T00:35:50;7.40;;;3.22;;
68353;SDS011;55274;43.060;25.618;2023-02-01T00:38:16;6.03;;;3.05;;
68353;SDS011;55274;43.060;25.618;2023-02-01T00:40:41;6.47;;;3.10;;
68353;SDS011;55274;43.060;25.618;2023-02-01T00:43:07;4.40;;;2.88;;
68353;SDS011;55274;43.060;25.618;2023-02-01T00:45:33;5.38;;;3.03;;
68353;SDS011;55274;43.060;25.618;2023-02-01T00:47:59;6.97;;;3.03;;
68353;SDS011;55274;43.060;25.618;2023-02-01T00:50:24;4.68;;;2.75;;
68353;SDS011;55274;43.060;25.618;2023-02-01T00:52:50;6.45;;;3.40;;
68353;SDS011;55274;43.060;25.618;2023-02-01T00:55:16;6.25;;;3.30;;
68353;SDS011;55274;43.060;25.618;2023-02-01T00:57:42;5.50;;;2.90;;
68353;SDS011;55274;43.060;25.618;2023-02-01T01:00:07;6.60;;;3.25;;
68353;SDS011;55274;43.060;25.618;2023-02-01T01:02:34;5.05;;;2.50;;
68353;SDS011;55274;43.060;25.618;2023-02-01T01:04:59;7.43;;;3.00;;
68353;SDS011;55274;43.060;25.618;2023-02-01T01:07:25;5.65;;;2.70;;
68353;SDS011;55274;43.060;25.618;2023-02-01T01:09:52;4.60;;;2.63;;
68353;SDS011;55274;43.060;25.618;2023-02-01T01:12:17;4.88;;;1.98;;
68353;SDS011;55274;43.060;25.618;2023-02-01T01:14:45;4.47;;;2.33;;
68353;SDS011;55274;43.060;25.618;2023-02-01T01:17:10;4.28;;;2.05;;
68353;SDS011;55274;43.060;25.618;2023-02-01T01:19:36;3.50;;;1.98;;
68353;SDS011;55274;43.060;25.618;2023-02-01T01:22:02;4.65;;;2.13;;
68353;SDS011;55274;43.060;25.618;2023-02-01T01:24:28;5.45;;;2.05;;
68353;SDS011;55274;43.060;25.618;2023-02-01T01:26:54;4.75;;;2.25;;
68353;SDS011;55274;43.060;25.618;2023-02-01T01:29:19;3.42;;;2.22;;
68353;SDS011;55274;43.060;25.618;2023-02-01T01:31:45;6.60;;;3.35;;
68353;SDS011;55274;43.060;25.618;2023-02-01T01:34:11;4.95;;;2.83;;
68353;SDS011;55274;43.060;25.618;2023-02-01T01:36:36;5.05;;;2.33;;
68353;SDS011;55274;43.060;25.618;2023-02-01T01:39:02;4.35;;;2.42;;
68353;SDS011;55274;43.060;25.618;2023-02-01T01:41:29;4.82;;;2.55;;
68353;SDS011;55274;43.060;25.618;2023-02-01T01:44:00;5.20;;;2.90;;
68353;SDS011;55274;43.060;25.618;2023-02-01T01:46:31;6.00;;;3.42;;
68353;SDS011;55274;43.060;25.618;2023-02-01T01:51:47;6.20;;;2.92;;
68353;SDS011;55274;43.060;25.618;2023-02-01T01:54:35;6.55;;;3.22;;
68353;SDS011;55274;43.060;25.618;2023-02-01T01:57:06;9.48;;;4.30;;
68353;SDS011;55274;43.060;25.618;2023-02-01T01:59:37;7.75;;;3.70;;
68353;SDS011;55274;43.060;25.618;2023-02-01T02:02:06;4.88;;;2.88;;
68353;SDS011;55274;43.060;25.618;2023-02-01T02:04:32;6.65;;;3.17;;
68353;SDS011;55274;43.060;25.618;2023-02-01T02:06:59;5.45;;;2.78;;
68353;SDS011;55274;43.060;25.618;2023-02-01T02:09:28;4.50;;;2.85;;
68353;SDS011;55274;43.060;25.618;2023-02-01T02:11:54;5.53;;;2.13;;
68353;SDS011;55274;43.060;25.618;2023-02-01T02:14:20;4.80;;;2.10;;
68353;SDS011;55274;43.060;25.618;2023-02-01T02:34:28;7.57;;;3.58;;
68353;SDS011;55274;43.060;25.618;2023-02-01T02:37:18;4.55;;;2.20;;
68353;SDS011;55274;43.060;25.618;2023-02-01T02:42:25;3.20;;;1.83;;
68353;SDS011;55274;43.060;25.618;2023-02-01T02:48:11;3.47;;;1.80;;
68353;SDS011;55274;43.060;25.618;2023-02-01T02:50:46;4.30;;;2.13;;
68353;SDS011;55274;43.060;25.618;2023-02-01T02:53:38;8.68;;;3.35;;
68353;SDS011;55274;43.060;25.618;2023-02-01T02:56:28;10.85;;;5.22;;
68353;SDS011;55274;43.060;25.618;2023-02-01T02:59:14;6.47;;;3.33;;
68353;SDS011;55274;43.060;25.618;2023-02-01T03:02:01;7.10;;;3.72;;
68353;SDS011;55274;43.060;25.618;2023-02-01T03:04:45;7.28;;;3.38;;
68353;SDS011;55274;43.060;25.618;2023-02-01T03:07:53;12.07;;;4.85;;
68353;SDS011;55274;43.060;25.618;2023-02-01T03:12:55;5.20;;;2.40;;
68353;SDS011;55274;43.060;25.618;2023-02-01T03:18:02;4.68;;;1.83;;
68353;SDS011;55274;43.060;25.618;2023-02-01T03:20:36;4.45;;;2.65;;
68353;SDS011;55274;43.060;25.618;2023-02-01T03:23:06;4.13;;;2.17;;
68353;SDS011;55274;43.060;25.618;2023-02-01T03:25:32;3.42;;;1.90;;
68353;SDS011;55274;43.060;25.618;2023-02-01T03:33:08;3.80;;;1.75;;
68353;SDS011;55274;43.060;25.618;2023-02-01T03:38:28;5.32;;;2.45;;
68353;SDS011;55274;43.060;25.618;2023-02-01T03:44:17;7.68;;;2.40;;
68353;SDS011;55274;43.060;25.618;2023-02-01T03:47:14;5.35;;;2.22;;
68353;SDS011;55274;43.060;25.618;2023-02-01T03:49:43;4.75;;;2.03;;
68353;SDS011;55274;43.060;25.618;2023-02-01T03:52:26;3.20;;;1.80;;
68353;SDS011;55274;43.060;25.618;2023-02-01T03:54:55;2.58;;;1.42;;
68353;SDS011;55274;43.060;25.618;2023-02-01T03:57:26;5.53;;;1.98;;
68353;SDS011;55274;43.060;25.618;2023-02-01T04:00:04;2.75;;;1.63;;
68353;SDS011;55274;43.060;25.618;2023-02-01T04:02:49;3.50;;;1.73;;
68353;SDS011;55274;43.060;25.618;2023-02-01T04:05:16;4.63;;;2.03;;
68353;SDS011;55274;43.060;25.618;2023-02-01T04:07:42;3.78;;;1.95;;
68353;SDS011;55274;43.060;25.618;2023-02-01T04:10:08;4.93;;;1.90;;
68353;SDS011;55274;43.060;25.618;2023-02-01T04:12:35;2.78;;;1.77;;
68353;SDS011;55274;43.060;25.618;2023-02-01T04:15:00;10.15;;;2.15;;
68353;SDS011;55274;43.060;25.618;2023-02-01T04:17:26;5.28;;;2.20;;
68353;SDS011;55274;43.060;25.618;2023-02-01T04:19:52;4.18;;;2.10;;
68353;SDS011;55274;43.060;25.618;2023-02-01T04:22:18;6.32;;;2.35;;
68353;SDS011;55274;43.060;25.618;2023-02-01T04:24:44;3.65;;;2.20;;
68353;SDS011;55274;43.060;25.618;2023-02-01T04:27:10;6.25;;;2.65;;
68353;SDS011;55274;43.060;25.618;2023-02-01T04:29:35;6.47;;;2.63;;
68353;SDS011;55274;43.060;25.618;2023-02-01T04:32:01;6.00;;;2.90;;
68353;SDS011;55274;43.060;25.618;2023-02-01T04:34:27;6.68;;;2.53;;
68353;SDS011;55274;43.060;25.618;2023-02-01T04:36:53;10.73;;;2.53;;
68353;SDS011;55274;43.060;25.618;2023-02-01T04:39:19;8.75;;;2.80;;
68353;SDS011;55274;43.060;25.618;2023-02-01T04:41:45;6.10;;;2.53;;
68353;SDS011;55274;43.060;25.618;2023-02-01T04:44:12;7.40;;;2.90;;
68353;SDS011;55274;43.060;25.618;2023-02-01T04:46:40;8.80;;;3.00;;
68353;SDS011;55274;43.060;25.618;2023-02-01T04:49:05;7.53;;;3.17;;
68353;SDS011;55274;43.060;25.618;2023-02-01T04:51:31;5.25;;;2.45;;
68353;SDS011;55274;43.060;25.618;2023-02-01T04:53:57;6.50;;;2.83;;
68353;SDS011;55274;43.060;25.618;2023-02-01T04:56:23;6.90;;;2.85;;
68353;SDS011;55274;43.060;25.618;2023-02-01T04:58:48;5.00;;;2.90;;
68353;SDS011;55274;43.060;25.618;2023-02-01T05:01:14;9.32;;;2.25;;
68353;SDS011;55274;43.060;25.618;2023-02-01T05:03:40;5.03;;;2.90;;
68353;SDS011;55274;43.060;25.618;2023-02-01T05:06:06;3.97;;;2.47;;
68353;SDS011;55274;43.060;25.618;2023-02-01T05:08:32;5.47;;;2.50;;
68353;SDS011;55274;43.060;25.618;2023-02-01T05:10:58;5.60;;;2.60;;
68353;SDS011;55274;43.060;25.618;2023-02-01T05:13:24;6.55;;;2.80;;
68353;SDS011;55274;43.060;25.618;2023-02-01T05:16:08;4.47;;;2.88;;
68353;SDS011;55274;43.060;25.618;2023-02-01T05:18:34;4.57;;;2.90;;
68353;SDS011;55274;43.060;25.618;2023-02-01T05:21:00;8.40;;;2.95;;
68353;SDS011;55274;43.060;25.618;2023-02-01T05:23:26;8.50;;;3.10;;
68353;SDS011;55274;43.060;25.618;2023-02-01T05:25:52;7.25;;;3.50;;
68353;SDS011;55274;43.060;25.618;2023-02-01T05:28:25;9.25;;;3.03;;
68353;SDS011;55274;43.060;25.618;2023-02-01T05:30:51;11.10;;;2.92;;
68353;SDS011;55274;43.060;25.618;2023-02-01T05:33:17;5.05;;;2.72;;
68353;SDS011;55274;43.060;25.618;2023-02-01T05:35:42;6.80;;;2.92;;
68353;SDS011;55274;43.060;25.618;2023-02-01T05:38:08;7.57;;;3.55;;
68353;SDS011;55274;43.060;25.618;2023-02-01T05:40:34;7.40;;;3.42;;
68353;SDS011;55274;43.060;25.618;2023-02-01T05:43:00;4.90;;;3.05;;
68353;SDS011;55274;43.060;25.618;2023-02-01T05:45:25;13.20;;;2.92;;
68353;SDS011;55274;43.060;25.618;2023-02-01T05:47:51;7.10;;;2.80;;
68353;SDS011;55274;43.060;25.618;2023-02-01T05:50:17;6.13;;;3.25;;
68353;SDS011;55274;43.060;25.618;2023-02-01T05:52:43;10.52;;;4.70;;
68353;SDS011;55274;43.060;25.618;2023-02-01T05:55:09;8.02;;;3.35;;
68353;SDS011;55274;43.060;25.618;2023-02-01T05:57:34;9.95;;;4.10;;
68353;SDS011;55274;43.060;25.618;2023-02-01T06:00:00;7.38;;;3.58;;
68353;SDS011;55274;43.060;25.618;2023-02-01T06:02:27;5.05;;;2.95;;
68353;SDS011;55274;43.060;25.618;2023-02-01T06:04:52;7.18;;;3.40;;
68353;SDS011;55274;43.060;25.618;2023-02-01T06:07:18;8.57;;;3.80;;
68353;SDS011;55274;43.060;25.618;2023-02-01T06:09:44;12.93;;;6.65;;
68353;SDS011;55274;43.060;25.618;2023-02-01T06:12:09;6.45;;;3.63;;
68353;SDS011;55274;43.060;25.618;2023-02-01T06:14:35;9.40;;;4.55;;
68353;SDS011;55274;43.060;25.618;2023-02-01T06:17:02;10.48;;;3.88;;
68353;SDS011;55274;43.060;25.618;2023-02-01T06:19:28;8.90;;;3.95;;
68353;SDS011;55274;43.060;25.618;2023-02-01T06:21:53;9.73;;;4.60;;
68353;SDS011;55274;43.060;25.618;2023-02-01T06:24:19;7.72;;;4.47;;
68353;SDS011;55274;43.060;25.618;2023-02-01T06:26:45;11.25;;;4.22;;
68353;SDS011;55274;43.060;25.618;2023-02-01T06:29:11;10.35;;;4.75;;
68353;SDS011;55274;43.060;25.618;2023-02-01T06:31:37;11.80;;;4.32;;
68353;SDS011;55274;43.060;25.618;2023-02-01T06:34:04;14.52;;;5.43;;
68353;SDS011;55274;43.060;25.618;2023-02-01T06:36:30;9.65;;;5.03;;
68353;SDS011;55274;43.060;25.618;2023-02-01T06:38:56;9.25;;;4.68;;
68353;SDS011;55274;43.060;25.618;2023-02-01T06:41:22;11.00;;;4.57;;
68353;SDS011;55274;43.060;25.618;2023-02-01T06:43:48;7.85;;;4.07;;
68353;SDS011;55274;43.060;25.618;2023-02-01T06:46:14;9.77;;;4.88;;
68353;SDS011;55274;43.060;25.618;2023-02-01T06:48:40;6.85;;;4.10;;
68353;SDS011;55274;43.060;25.618;2023-02-01T06:51:10;11.82;;;4.80;;
68353;SDS011;55274;43.060;25.618;2023-02-01T06:53:51;14.80;;;5.63;;
68353;SDS011;55274;43.060;25.618;2023-02-01T06:56:17;12.38;;;5.75;;
68353;SDS011;55274;43.060;25.618;2023-02-01T06:58:43;6.90;;;3.45;;
68353;SDS011;55274;43.060;25.618;2023-02-01T07:01:10;8.60;;;4.10;;
68353;SDS011;55274;43.060;25.618;2023-02-01T07:03:36;8.13;;;3.63;;
68353;SDS011;55274;43.060;25.618;2023-02-01T07:06:02;8.65;;;4.18;;
68353;SDS011;55274;43.060;25.618;2023-02-01T07:08:30;6.95;;;3.28;;
68353;SDS011;55274;43.060;25.618;2023-02-01T07:11:01;8.40;;;4.05;;
68353;SDS011;55274;43.060;25.618;2023-02-01T07:13:27;7.72;;;4.43;;
68353;SDS011;55274;43.060;25.618;2023-02-01T07:15:53;8.30;;;3.60;;
68353;SDS011;55274;43.060;25.618;2023-02-01T07:18:19;12.77;;;4.50;;
68353;SDS011;55274;43.060;25.618;2023-02-01T07:20:49;9.45;;;4.25;;
68353;SDS011;55274;43.060;25.618;2023-02-01T07:25:41;10.77;;;4.07;;
68353;SDS011;55274;43.060;25.618;2023-02-01T07:28:07;10.48;;;4.65;;
68353;SDS011;55274;43.060;25.618;2023-02-01T07:30:33;10.43;;;4.90;;
68353;SDS011;55274;43.060;25.618;2023-02-01T07:32:59;10.95;;;4.40;;
68353;SDS011;55274;43.060;25.618;2023-02-01T07:35:26;9.93;;;3.67;;
68353;SDS011;55274;43.060;25.618;2023-02-01T07:37:52;9.85;;;4.32;;
68353;SDS011;55274;43.060;25.618;2023-02-01T07:40:18;13.38;;;5.28;;
68353;SDS011;55274;43.060;25.618;2023-02-01T07:42:49;9.25;;;4.75;;
68353;SDS011;55274;43.060;25.618;2023-02-01T07:45:15;7.20;;;4.32;;
68353;SDS011;55274;43.060;25.618;2023-02-01T07:47:41;11.95;;;4.93;;
68353;SDS011;55274;43.060;25.618;2023-02-01T07:50:07;10.10;;;3.35;;
68353;SDS011;55274;43.060;25.618;2023-02-01T07:52:33;13.98;;;4.32;;
68353;SDS011;55274;43.060;25.618;2023-02-01T07:54:59;10.02;;;4.72;;
68353;SDS011;55274;43.060;25.618;2023-02-01T07:57:25;7.00;;;3.67;;
68353;SDS011;55274;43.060;25.618;2023-02-01T07:59:50;7.13;;;3.22;;
68353;SDS011;55274;43.060;25.618;2023-02-01T08:02:36;6.95;;;3.53;;
68353;SDS011;55274;43.060;25.618;2023-02-01T08:05:02;11.75;;;5.10;;
68353;SDS011;55274;43.060;25.618;2023-02-01T08:07:30;14.48;;;5.15;;
68353;SDS011;55274;43.060;25.618;2023-02-01T08:09:55;16.58;;;8.20;;
68353;SDS011;55274;43.060;25.618;2023-02-01T08:12:21;19.80;;;6.78;;
68353;SDS011;55274;43.060;25.618;2023-02-01T08:14:47;11.50;;;6.85;;
68353;SDS011;55274;43.060;25.618;2023-02-01T08:17:12;15.65;;;7.30;;
68353;SDS011;55274;43.060;25.618;2023-02-01T08:19:38;13.48;;;6.38;;
68353;SDS011;55274;43.060;25.618;2023-02-01T08:22:04;7.53;;;3.75;;
68353;SDS011;55274;43.060;25.618;2023-02-01T08:24:32;29.92;;;12.13;;
68353;SDS011;55274;43.060;25.618;2023-02-01T08:27:00;9.05;;;3.95;;
68353;SDS011;55274;43.060;25.618;2023-02-01T08:29:27;7.50;;;3.60;;
68353;SDS011;55274;43.060;25.618;2023-02-01T08:31:53;13.63;;;5.70;;
68353;SDS011;55274;43.060;25.618;2023-02-01T08:34:19;4.95;;;2.30;;
68353;SDS011;55274;43.060;25.618;2023-02-01T08:36:45;19.42;;;4.40;;
68353;SDS011;55274;43.060;25.618;2023-02-01T08:39:10;5.68;;;2.88;;
68353;SDS011;55274;43.060;25.618;2023-02-01T08:41:37;3.30;;;1.85;;
68353;SDS011;55274;43.060;25.618;2023-02-01T08:44:03;3.95;;;1.58;;
68353;SDS011;55274;43.060;25.618;2023-02-01T08:46:29;10.25;;;3.28;;
68353;SDS011;55274;43.060;25.618;2023-02-01T08:48:55;4.03;;;2.08;;
68353;SDS011;55274;43.060;25.618;2023-02-01T08:51:22;4.57;;;2.50;;
68353;SDS011;55274;43.060;25.618;2023-02-01T08:53:48;6.38;;;2.97;;
68353;SDS011;55274;43.060;25.618;2023-02-01T08:56:15;9.85;;;3.83;;
68353;SDS011;55274;43.060;25.618;2023-02-01T08:58:41;9.38;;;3.25;;
68353;SDS011;55274;43.060;25.618;2023-02-01T09:01:12;6.30;;;2.50;;
68353;SDS011;55274;43.060;25.618;2023-02-01T09:03:39;7.40;;;3.25;;
68353;SDS011;55274;43.060;25.618;2023-02-01T09:06:06;9.40;;;4.93;;
68353;SDS011;55274;43.060;25.618;2023-02-01T09:08:34;4.90;;;3.28;;
68353;SDS011;55274;43.060;25.618;2023-02-01T09:11:01;8.38;;;1.77;;
68353;SDS011;55274;43.060;25.618;2023-02-01T09:13:29;9.80;;;3.58;;
68353;SDS011;55274;43.060;25.618;2023-02-01T09:15:55;7.60;;;3.60;;
68353;SDS011;55274;43.060;25.618;2023-02-01T09:18:20;14.43;;;3.42;;
68353;SDS011;55274;43.060;25.618;2023-02-01T09:20:47;10.52;;;4.30;;
68353;SDS011;55274;43.060;25.618;2023-02-01T09:23:12;5.85;;;3.13;;
68353;SDS011;55274;43.060;25.618;2023-02-01T09:25:38;9.05;;;3.35;;
68353;SDS011;55274;43.060;25.618;2023-02-01T09:28:05;7.68;;;2.83;;
68353;SDS011;55274;43.060;25.618;2023-02-01T09:30:34;4.78;;;2.35;;
68353;SDS011;55274;43.060;25.618;2023-02-01T09:33:01;11.60;;;3.50;;
68353;SDS011;55274;43.060;25.618;2023-02-01T09:35:27;6.53;;;2.67;;
68353;SDS011;55274;43.060;25.618;2023-02-01T09:37:53;10.10;;;4.13;;
68353;SDS011;55274;43.060;25.618;2023-02-01T09:40:20;12.02;;;3.92;;
68353;SDS011;55274;43.060;25.618;2023-02-01T09:42:57;9.00;;;3.85;;
68353;SDS011;55274;43.060;25.618;2023-02-01T09:45:28;15.05;;;4.18;;
68353;SDS011;55274;43.060;25.618;2023-02-01T09:48:26;8.82;;;3.90;;
68353;SDS011;55274;43.060;25.618;2023-02-01T09:50:56;5.15;;;2.35;;
68353;SDS011;55274;43.060;25.618;2023-02-01T09:56:00;6.07;;;3.00;;
68353;SDS011;55274;43.060;25.618;2023-02-01T10:01:20;4.97;;;2.20;;
68353;SDS011;55274;43.060;25.618;2023-02-01T10:03:48;7.75;;;3.22;;
68353;SDS011;55274;43.060;25.618;2023-02-01T10:20:31;7.20;;;2.85;;
68353;SDS011;55274;43.060;25.618;2023-02-01T10:25:44;9.23;;;3.53;;
68353;SDS011;55274;43.060;25.618;2023-02-01T10:28:17;4.07;;;2.40;;
68353;SDS011;55274;43.060;25.618;2023-02-01T10:30:45;8.43;;;2.67;;
68353;SDS011;55274;43.060;25.618;2023-02-01T10:33:26;6.28;;;2.10;;
68353;SDS011;55274;43.060;25.618;2023-02-01T10:36:13;7.53;;;2.38;;
68353;SDS011;55274;43.060;25.618;2023-02-01T10:38:44;5.43;;;1.85;;
68353;SDS011;55274;43.060;25.618;2023-02-01T10:43:36;8.45;;;1.73;;
68353;SDS011;55274;43.060;25.618;2023-02-01T10:46:04;3.67;;;1.83;;
68353;SDS011;55274;43.060;25.618;2023-02-01T10:48:31;5.47;;;2.03;;
68353;SDS011;55274;43.060;25.618;2023-02-01T10:50:59;7.05;;;1.52;;
68353;SDS011;55274;43.060;25.618;2023-02-01T10:56:23;2.50;;;1.15;;
68353;SDS011;55274;43.060;25.618;2023-02-01T10:58:50;4.63;;;1.70;;
68353;SDS011;55274;43.060;25.618;2023-02-01T11:01:21;3.92;;;1.92;;
68353;SDS011;55274;43.060;25.618;2023-02-01T11:04:10;7.10;;;2.05;;
68353;SDS011;55274;43.060;25.618;2023-02-01T11:09:35;6.43;;;2.00;;
68353;SDS011;55274;43.060;25.618;2023-02-01T11:12:05;9.48;;;1.80;;
68353;SDS011;55274;43.060;25.618;2023-02-01T11:14:45;6.45;;;1.77;;
68353;SDS011;55274;43.060;25.618;2023-02-01T11:19:57;4.68;;;1.42;;
68353;SDS011;55274;43.060;25.618;2023-02-01T11:22:26;6.68;;;1.77;;
68353;SDS011;55274;43.060;25.618;2023-02-01T11:24:53;3.22;;;1.35;;
68353;SDS011;55274;43.060;25.618;2023-02-01T11:27:20;13.20;;;1.65;;
68353;SDS011;55274;43.060;25.618;2023-02-01T11:29:52;7.82;;;1.40;;
68353;SDS011;55274;43.060;25.618;2023-02-01T11:32:22;6.97;;;1.60;;
68353;SDS011;55274;43.060;25.618;2023-02-01T11:34:53;3.25;;;0.90;;
68353;SDS011;55274;43.060;25.618;2023-02-01T11:37:36;4.15;;;1.13;;
68353;SDS011;55274;43.060;25.618;2023-02-01T11:43:24;23.75;;;2.33;;
68353;SDS011;55274;43.060;25.618;2023-02-01T11:45:57;2.60;;;1.20;;
68353;SDS011;55274;43.060;25.618;2023-02-01T11:48:26;3.55;;;1.48;;
68353;SDS011;55274;43.060;25.618;2023-02-01T12:01:46;4.10;;;1.02;;
68353;SDS011;55274;43.060;25.618;2023-02-01T12:35:47;15.77;;;2.70;;
68353;SDS011;55274;43.060;25.618;2023-02-01T12:38:41;10.10;;;1.85;;
68353;SDS011;55274;43.060;25.618;2023-02-01T12:41:37;6.25;;;1.80;;
68353;SDS011;55274;43.060;25.618;2023-02-01T12:47:04;7.65;;;1.58;;
68353;SDS011;55274;43.060;25.618;2023-02-01T12:49:45;9.63;;;1.88;;
68353;SDS011;55274;43.060;25.618;2023-02-01T12:55:34;24.08;;;2.45;;
68353;SDS011;55274;43.060;25.618;2023-02-01T12:58:09;5.05;;;1.52;;
68353;SDS011;55274;43.060;25.618;2023-02-01T13:01:01;4.15;;;1.40;;
68353;SDS011;55274;43.060;25.618;2023-02-01T13:03:38;5.18;;;1.50;;
68353;SDS011;55274;43.060;25.618;2023-02-01T13:06:19;8.65;;;1.48;;
68353;SDS011;55274;43.060;25.618;2023-02-01T13:14:19;14.90;;;2.70;;
68353;SDS011;55274;43.060;25.618;2023-02-01T13:17:30;20.90;;;1.85;;
68353;SDS011;55274;43.060;25.618;2023-02-01T13:27:41;9.40;;;1.80;;
68353;SDS011;55274;43.060;25.618;2023-02-01T13:44:03;5.75;;;1.60;;
68353;SDS011;55274;43.060;25.618;2023-02-01T13:46:41;49.60;;;5.78;;
68353;SDS011;55274;43.060;25.618;2023-02-01T13:49:23;8.45;;;1.55;;
68353;SDS011;55274;43.060;25.618;2023-02-01T13:51:53;3.08;;;1.23;;
68353;SDS011;55274;43.060;25.618;2023-02-01T13:54:30;9.05;;;1.95;;
68353;SDS011;55274;43.060;25.618;2023-02-01T13:56:59;21.25;;;2.13;;
68353;SDS011;55274;43.060;25.618;2023-02-01T14:00:08;34.38;;;3.20;;
68353;SDS011;55274;43.060;25.618;2023-02-01T14:05:11;6.95;;;1.38;;
68353;SDS011;55274;43.060;25.618;2023-02-01T14:13:34;2.85;;;1.00;;
68353;SDS011;55274;43.060;25.618;2023-02-01T14:23:47;6.85;;;1.50;;
68353;SDS011;55274;43.060;25.618;2023-02-01T14:26:21;6.72;;;1.38;;
68353;SDS011;55274;43.060;25.618;2023-02-01T14:28:55;4.78;;;1.02;;
68353;SDS011;55274;43.060;25.618;2023-02-01T14:31:32;4.93;;;1.60;;
68353;SDS011;55274;43.060;25.618;2023-02-01T14:34:17;5.88;;;1.35;;
68353;SDS011;55274;43.060;25.618;2023-02-01T14:36:57;2.53;;;1.10;;
68353;SDS011;55274;43.060;25.618;2023-02-01T14:39:35;5.15;;;1.45;;
68353;SDS011;55274;43.060;25.618;2023-02-01T14:47:52;4.78;;;1.30;;
68353;SDS011;55274;43.060;25.618;2023-02-01T14:55:43;8.00;;;1.70;;
68353;SDS011;55274;43.060;25.618;2023-02-01T15:00:57;7.30;;;1.52;;
68353;SDS011;55274;43.060;25.618;2023-02-01T15:03:36;6.60;;;1.65;;
68353;SDS011;55274;43.060;25.618;2023-02-01T15:06:40;5.40;;;1.60;;
68353;SDS011;55274;43.060;25.618;2023-02-01T15:11:52;7.07;;;1.73;;
68353;SDS011;55274;43.060;25.618;2023-02-01T15:14:20;8.40;;;2.30;;
68353;SDS011;55274;43.060;25.618;2023-02-01T15:16:45;3.25;;;1.73;;
68353;SDS011;55274;43.060;25.618;2023-02-01T15:19:19;11.15;;;1.90;;
68353;SDS011;55274;43.060;25.618;2023-02-01T15:21:48;5.72;;;2.00;;
68353;SDS011;55274;43.060;25.618;2023-02-01T15:24:24;3.45;;;1.65;;
68353;SDS011;55274;43.060;25.618;2023-02-01T15:26:52;4.15;;;1.63;;
68353;SDS011;55274;43.060;25.618;2023-02-01T15:29:20;3.20;;;1.55;;
68353;SDS011;55274;43.060;25.618;2023-02-01T15:31:53;4.30;;;1.75;;
68353;SDS011;55274;43.060;25.618;2023-02-01T15:34:19;5.57;;;2.05;;
68353;SDS011;55274;43.060;25.618;2023-02-01T15:36:46;4.47;;;1.80;;
68353;SDS011;55274;43.060;25.618;2023-02-01T15:39:22;6.43;;;2.08;;
68353;SDS011;55274;43.060;25.618;2023-02-01T15:42:00;9.63;;;2.13;;
68353;SDS011;55274;43.060;25.618;2023-02-01T15:44:38;10.70;;;2.47;;
68353;SDS011;55274;43.060;25.618;2023-02-01T15:47:14;4.55;;;1.83;;
68353;SDS011;55274;43.060;25.618;2023-02-01T15:49:42;3.15;;;1.80;;
68353;SDS011;55274;43.060;25.618;2023-02-01T15:52:15;7.20;;;2.03;;
68353;SDS011;55274;43.060;25.618;2023-02-01T15:54:48;4.38;;;2.20;;
68353;SDS011;55274;43.060;25.618;2023-02-01T15:57:22;15.23;;;3.30;;
68353;SDS011;55274;43.060;25.618;2023-02-01T15:59:56;3.45;;;1.45;;
68353;SDS011;55274;43.060;25.618;2023-02-01T16:05:55;11.93;;;2.10;;
68353;SDS011;55274;43.060;25.618;2023-02-01T16:08:17;11.60;;;2.05;;
68353;SDS011;55274;43.060;25.618;2023-02-01T16:10:48;7.47;;;2.40;;
68353;SDS011;55274;43.060;25.618;2023-02-01T16:13:16;3.42;;;1.70;;
68353;SDS011;55274;43.060;25.618;2023-02-01T16:15:43;7.28;;;1.75;;
68353;SDS011;55274;43.060;25.618;2023-02-01T16:18:12;7.50;;;2.10;;
68353;SDS011;55274;43.060;25.618;2023-02-01T16:20:39;11.05;;;2.38;;
68353;SDS011;55274;43.060;25.618;2023-02-01T16:23:06;13.10;;;2.25;;
68353;SDS011;55274;43.060;25.618;2023-02-01T16:25:34;11.35;;;1.83;;
68353;SDS011;55274;43.060;25.618;2023-02-01T16:28:00;9.63;;;2.70;;
68353;SDS011;55274;43.060;25.618;2023-02-01T16:30:26;10.80;;;2.28;;
68353;SDS011;55274;43.060;25.618;2023-02-01T16:32:55;4.57;;;1.63;;
68353;SDS011;55274;43.060;25.618;2023-02-01T16:35:30;3.75;;;1.52;;
68353;SDS011;55274;43.060;25.618;2023-02-01T16:38:01;3.75;;;1.80;;
68353;SDS011;55274;43.060;25.618;2023-02-01T16:40:37;6.90;;;1.60;;
68353;SDS011;55274;43.060;25.618;2023-02-01T16:43:17;4.85;;;1.85;;
68353;SDS011;55274;43.060;25.618;2023-02-01T16:45:44;4.93;;;1.38;;
68353;SDS011;55274;43.060;25.618;2023-02-01T16:48:20;3.83;;;1.35;;
68353;SDS011;55274;43.060;25.618;2023-02-01T16:50:54;3.50;;;1.20;;
68353;SDS011;55274;43.060;25.618;2023-02-01T16:53:22;3.20;;;1.60;;
68353;SDS011;55274;43.060;25.618;2023-02-01T16:55:49;7.22;;;1.30;;
68353;SDS011;55274;43.060;25.618;2023-02-01T16:58:17;2.30;;;1.17;;
68353;SDS011;55274;43.060;25.618;2023-02-01T17:00:44;2.38;;;1.30;;
68353;SDS011;55274;43.060;25.618;2023-02-01T17:03:11;2.22;;;1.13;;
68353;SDS011;55274;43.060;25.618;2023-02-01T17:05:44;13.15;;;2.33;;
68353;SDS011;55274;43.060;25.618;2023-02-01T17:08:13;5.60;;;2.08;;
68353;SDS011;55274;43.060;25.618;2023-02-01T17:10:43;12.43;;;2.78;;
68353;SDS011;55274;43.060;25.618;2023-02-01T17:13:13;21.83;;;3.03;;
68353;SDS011;55274;43.060;25.618;2023-02-01T17:18:10;14.40;;;2.65;;
68353;SDS011;55274;43.060;25.618;2023-02-01T17:20:40;13.40;;;3.13;;
68353;SDS011;55274;43.060;25.618;2023-02-01T17:23:07;13.80;;;2.75;;
68353;SDS011;55274;43.060;25.618;2023-02-01T17:25:38;8.45;;;1.98;;
68353;SDS011;55274;43.060;25.618;2023-02-01T17:28:04;4.18;;;2.13;;
68353;SDS011;55274;43.060;25.618;2023-02-01T17:30:30;11.30;;;2.35;;
68353;SDS011;55274;43.060;25.618;2023-02-01T17:32:57;5.05;;;2.13;;
68353;SDS011;55274;43.060;25.618;2023-02-01T17:35:24;5.72;;;1.92;;
68353;SDS011;55274;43.060;25.618;2023-02-01T17:37:51;7.72;;;2.40;;
68353;SDS011;55274;43.060;25.618;2023-02-01T17:40:18;10.65;;;2.78;;
68353;SDS011;55274;43.060;25.618;2023-02-01T17:42:44;50.80;;;6.03;;
68353;SDS011;55274;43.060;25.618;2023-02-01T17:48:04;14.68;;;3.95;;
68353;SDS011;55274;43.060;25.618;2023-02-01T17:50:31;21.33;;;4.97;;
68353;SDS011;55274;43.060;25.618;2023-02-01T17:53:00;23.25;;;5.20;;
68353;SDS011;55274;43.060;25.618;2023-02-01T17:55:34;18.50;;;4.63;;
68353;SDS011;55274;43.060;25.618;2023-02-01T17:58:01;22.30;;;4.40;;
68353;SDS011;55274;43.060;25.618;2023-02-01T18:00:27;17.92;;;3.90;;
68353;SDS011;55274;43.060;25.618;2023-02-01T18:02:52;23.60;;;4.50;;
68353;SDS011;55274;43.060;25.618;2023-02-01T18:05:40;27.02;;;3.75;;